Latest Weather Observations for Larapuna (Eddystone Point)

IDT60801

Issued at 4:31 pm EDT Friday 12 February 2016 (issued every 30 minutes, with the page automatically refreshed every 10 minutes)

About weather observations | Map of weather stations | Latest weather observations for TAS | Other Formats
Station Details ID: 092045 Name: LARAPUNA (EDDYSTONE POINT) Lat: -40.99 Lon: 148.35 Height: 19.7 m
Data from the previous 72 hours. | See also: Recent months at Larapuna (Eddystone Point)
Date/Time
EDT
Temp
°C
App
Temp
°C
Dew
Point
Rel
Hum
%
Delta-T
°C
Wind Press
QNH
hPa
Press
MSL
hPa
Rain
since 9 am
mm
Dir
 
Spd
km/h
Gust
km/h
Spd
kts
Gust
kts
12/04:30pm 24.3 23.8 17.8 67 4.1 NE 17 19 9 10 1014.1 1014.1 2.6
12/04:00pm 23.3 24.1 17.3 69 3.7 E 9 13 5 7 1014.5 1014.5 2.6
12/03:30pm 23.0 23.5 17.5 71 3.4 ESE 11 15 6 8 1014.8 1014.8 2.6
12/03:00pm 23.4 23.4 18.1 72 3.3 ESE 15 19 8 10 1015.2 1015.2 2.6
12/02:30pm 22.7 21.8 16.9 70 3.6 SE 17 20 9 11 1015.5 1015.5 2.6
12/02:00pm 23.1 22.1 17.6 71 3.4 SSE 19 24 10 13 1015.9 1015.9 2.6
12/01:30pm 22.3 21.2 17.7 75 2.9 SSE 20 24 11 13 1016.2 1016.2 2.6
12/01:00pm 21.2 19.9 17.2 78 2.4 SSE 20 24 11 13 1016.4 1016.4 2.6
12/12:30pm 21.0 20.3 18.6 86 1.5 S 20 24 11 13 1016.8 1016.8 2.6
12/12:00pm 19.6 18.0 18.3 92 0.8 S 24 28 13 15 1017.1 1017.1 2.6
12/11:30am 18.4 15.9 17.2 93 0.7 S 26 30 14 16 1017.3 1017.3 2.4
12/11:00am 18.1 15.9 17.0 93 0.7 S 24 28 13 15 1017.5 1017.5 2.2
12/10:30am 17.8 15.4 16.5 92 0.8 S 24 28 13 15 1017.6 1017.6 1.4
12/10:00am 17.8 15.4 16.3 91 0.9 S 24 28 13 15 1017.7 1017.7 0.6
12/09:30am 18.2 15.5 16.5 90 1.0 S 26 30 14 16 1017.5 1017.5 0.0
12/09:00am 18.2 15.8 16.4 89 1.1 S 24 28 13 15 1017.6 1017.6 0.0
12/08:30am 18.0 14.8 16.2 89 1.1 S 28 32 15 17 1017.3 1017.3 0.0
12/08:00am 18.2 15.5 16.5 90 1.0 S 26 33 14 18 1017.1 1017.1 0.0
12/07:30am 18.0 14.9 16.5 91 0.9 S 28 32 15 17 1017.2 1017.2 0.0
12/07:00am 18.2 14.8 16.7 91 0.9 S 30 33 16 18 1016.9 1016.9 0.0
12/06:30am 17.8 14.1 16.1 90 1.0 S 30 32 16 17 1016.8 1016.8 0.0
12/06:00am 18.0 16.9 16.3 90 1.0 SSW 17 20 9 11 1016.6 1016.6 0.0
12/05:30am 17.9 17.8 16.1 89 1.1 SSW 11 15 6 8 1016.3 1016.3 0.0
12/05:00am 17.6 17.7 15.4 87 1.3 SW 9 13 5 7 1016.2 1016.2 0.0
12/04:30am 19.1 19.3 16.7 86 1.4 N 11 15 6 8 1016.2 1016.2 0.0
12/04:00am 19.4 18.9 17.0 86 1.5 NE 15 17 8 9 1016.3 1016.3 0.0
12/03:30am 19.3 18.4 16.9 86 1.5 NE 17 19 9 10 1016.4 1016.4 0.0
12/03:00am 19.5 18.2 16.9 85 1.6 NE 19 20 10 11 1016.5 1016.5 0.0
12/02:30am 19.3 18.4 16.9 86 1.5 NE 17 20 9 11 1016.8 1016.8 0.0
12/02:00am 19.1 18.1 16.7 86 1.4 NE 17 20 9 11 1017.1 1017.1 0.0
12/01:30am 19.1 17.5 16.5 85 1.6 NE 20 24 11 13 1017.3 1017.3 0.0
12/01:00am 19.2 17.2 16.4 84 1.7 NE 22 26 12 14 1017.4 1017.4 0.0
12/12:30am 19.2 17.1 16.1 82 1.8 NE 22 26 12 14 1017.5 1017.5 0.0
12/12:00am 19.2 17.4 15.9 81 2.0 NE 20 24 11 13 1017.7 1017.7 0.0
 
Date/Time
EDT
Temp
°C
App
Temp
°C
Dew
Point
Rel
Hum
%
Delta-T
°C
Wind Press
QNH
hPa
Press
MSL
hPa
Rain
since 9 am
mm
Dir
 
Spd
km/h
Gust
km/h
Spd
kts
Gust
kts
11/11:30pm 19.6 17.5 16.1 80 2.1 ENE 22 26 12 14 1017.8 1017.8 0.0
11/11:00pm 19.4 17.6 15.9 80 2.1 ENE 20 24 11 13 1018.0 1018.0 0.0
11/10:30pm 19.4 16.7 15.7 79 2.2 ENE 24 28 13 15 1017.9 1017.9 0.0
11/10:00pm 19.5 17.3 16.0 80 2.1 ENE 22 28 12 15 1017.8 1017.8 0.0
11/09:30pm 19.6 16.8 15.3 76 2.5 ENE 24 28 13 15 1017.6 1017.6 0.0
11/09:00pm 19.7 17.8 15.1 75 2.7 ENE 19 24 10 13 1017.4 1017.4 0.0
11/08:30pm 19.8 18.3 15.2 75 2.7 E 17 20 9 11 1017.1 1017.1 0.0
11/08:00pm 19.8 18.1 14.6 72 3.0 E 17 20 9 11 1016.8 1016.8 0.0
11/07:30pm 20.0 17.9 14.6 71 3.2 ESE 19 24 10 13 1016.5 1016.5 0.0
11/07:00pm 19.9 17.5 14.3 70 3.2 ESE 20 22 11 12 1016.4 1016.4 0.0
11/06:30pm 20.2 17.8 14.3 69 3.4 ESE 20 24 11 13 1016.3 1016.3 0.0
11/06:00pm 20.9 18.6 14.1 65 3.9 ESE 19 26 10 14 1016.2 1016.2 0.0
11/05:30pm 21.5 19.2 14.2 63 4.3 ESE 19 24 10 13 1016.0 1016.0 0.0
11/05:00pm 21.4 18.9 14.1 63 4.2 ESE 20 26 11 14 1016.1 1016.1 0.0
11/04:30pm 22.4 19.9 14.0 59 4.9 ESE 20 24 11 13 1016.1 1016.1 0.0
11/04:00pm 22.0 19.7 14.1 61 4.6 ESE 19 24 10 13 1016.1 1016.1 0.0
11/03:30pm 22.3 19.9 13.9 59 4.9 ESE 19 24 10 13 1016.0 1016.0 0.0
11/03:00pm 23.1 20.7 14.4 58 5.1 ESE 20 24 11 13 1016.1 1016.1 0.0
11/02:30pm 22.2 19.3 14.1 60 4.7 ESE 22 26 12 14 1016.0 1016.0 0.0
11/02:00pm 23.1 20.9 14.4 58 5.1 ESE 19 26 10 14 1016.3 1016.3 0.0
11/01:30pm 22.2 19.5 13.5 57 5.0 SE 20 26 11 14 1016.2 1016.2 0.0
11/01:00pm 22.2 19.3 14.1 60 4.7 SE 22 28 12 15 1016.2 1016.2 0.0
11/12:30pm 22.3 19.6 14.7 62 4.5 SE 22 28 12 15 1016.4 1016.4 0.0
11/12:00pm 23.7 20.2 15.5 60 4.9 SSE 28 32 15 17 1016.5 1016.5 0.0
11/11:30am 22.7 18.7 15.3 63 4.4 S 30 35 16 19 1016.5 1016.5 0.0
11/11:00am 22.1 17.5 15.0 64 4.2 S 33 39 18 21 1016.3 1016.3 0.0
11/10:30am 20.8 16.0 14.5 67 3.7 S 33 39 18 21 1016.1 1016.1 0.0
11/10:00am 20.9 14.9 14.3 66 3.8 S 39 43 21 23 1015.9 1015.9 0.0
11/09:30am 20.5 14.5 14.4 68 3.6 S 39 44 21 24 1015.6 1015.6 0.0
11/09:00am 19.9 13.6 14.5 71 3.1 S 41 48 22 26 1015.2 1015.2 0.0
11/08:30am 19.0 12.1 14.1 73 2.8 S 43 48 23 26 1015.1 1015.1 0.0
11/08:00am 19.3 12.3 13.7 70 3.2 S 43 48 23 26 1014.7 1014.7 0.0
11/07:30am 18.5 11.5 13.8 74 2.7 S 43 50 23 27 1014.4 1014.4 0.0
11/07:00am 18.4 11.1 13.5 73 2.8 S 44 52 24 28 1013.9 1013.9 0.0
11/06:30am 18.4 11.1 12.8 70 3.1 S 43 50 23 27 1013.5 1013.5 0.0
11/06:00am 18.5 12.7 13.8 74 2.7 S 37 43 20 23 1013.0 1013.0 0.0
11/05:30am 18.5 14.3 15.7 84 1.7 S 32 39 17 21 1012.7 1012.7 0.0
11/05:00am 18.6 14.7 16.4 87 1.3 SSW 32 35 17 19 1012.3 1012.3 0.0
11/04:30am 18.7 15.7 16.9 89 1.1 S 28 33 15 18 1012.1 1012.1 0.0
11/04:00am 18.5 15.6 17.0 91 0.9 S 28 32 15 17 1012.0 1012.0 0.0
11/03:30am 17.9 16.5 16.6 92 0.8 SSW 19 20 10 11 1011.9 1011.9 0.0
11/03:00am 17.7 16.0 16.2 91 0.9 SW 20 24 11 13 1012.0 1012.0 0.0
11/02:30am 17.9 15.9 16.4 91 0.9 SSW 22 26 12 14 1012.1 1012.1 0.0
11/02:00am 17.4 15.5 15.7 90 1.0 SW 20 24 11 13 1012.1 1012.1 0.0
11/01:30am 17.3 16.3 15.5 89 1.1 SW 15 17 8 9 1012.3 1012.3 0.0
11/01:00am 17.4 16.0 15.6 89 1.1 SW 17 17 9 9 1012.2 1012.2 0.0
11/12:30am 17.4 16.0 15.6 89 1.1 SW 17 19 9 10 1012.3 1012.3 0.0
11/12:00am 17.0 16.2 15.0 88 1.2 SW 13 15 7 8 1012.1 1012.1 0.0
 
Date/Time
EDT
Temp
°C
App
Temp
°C
Dew
Point
Rel
Hum
%
Delta-T
°C
Wind Press
QNH
hPa
Press
MSL
hPa
Rain
since 9 am
mm
Dir
 
Spd
km/h
Gust
km/h
Spd
kts
Gust
kts
10/11:30pm 17.3 16.4 14.9 86 1.4 SW 13 13 7 7 1012.0 1012.0 0.0
10/11:00pm 17.4 16.9 14.9 85 1.4 WSW 11 15 6 8 1012.1 1012.1 0.0
10/10:30pm 17.0 15.9 14.3 84 1.5 WNW 13 15 7 8 1012.3 1012.3 0.0
10/10:00pm 17.7 16.3 14.6 82 1.8 WNW 15 17 8 9 1012.2 1012.2 0.0
10/09:30pm 17.8 17.1 14.3 80 2.0 WNW 11 11 6 6 1012.0 1012.0 0.0
10/09:00pm 18.8 17.2 14.9 78 2.3 WNW 17 22 9 12 1011.6 1011.6 0.0
10/08:30pm 19.1 16.9 15.0 77 2.4 NW 20 28 11 15 1011.2 1011.2 0.0
10/08:00pm 19.8 17.6 15.0 74 2.8 NW 20 28 11 15 1011.2 1011.2 0.0
10/07:30pm 20.5 17.4 14.4 68 3.6 WNW 24 33 13 18 1010.8 1010.8 0.0
10/07:00pm 21.4 17.2 13.6 61 4.5 NW 28 35 15 19 1010.4 1010.4 0.0
10/06:30pm 22.7 18.6 12.6 53 5.8 NW 26 33 14 18 1010.2 1010.2 0.0
10/06:00pm 23.0 17.0 7.1 36 8.2 NW 28 35 15 19 1010.2 1010.2 0.0
10/05:30pm 23.4 19.2 12.4 50 6.3 NW 26 35 14 19 1010.2 1010.2 0.0
10/05:00pm 21.4 16.8 15.0 67 3.8 NNW 33 41 18 22 1010.1 1010.1 0.0
10/04:30pm 21.0 15.8 14.6 67 3.8 N 35 43 19 23 1010.2 1010.2 0.0
10/04:00pm 21.2 15.2 14.4 65 4.0 N 39 52 21 28 1010.3 1010.3 0.0
10/03:30pm 21.5 15.8 15.3 68 3.7 N 39 48 21 26 1010.3 1010.3 0.0
10/03:00pm 22.0 19.9 16.1 69 3.6 NNE 22 37 12 20 1010.7 1010.7 0.0
10/02:30pm 23.1 21.6 16.4 66 4.1 NE 19 22 10 12 1011.6 1011.6 0.0
10/02:00pm 23.6 23.2 16.1 62 4.6 NE 13 17 7 9 1011.8 1011.8 0.0
10/01:30pm 23.5 23.0 15.8 62 4.7 NE 13 17 7 9 1012.1 1012.1 0.0
10/01:00pm 22.8 22.7 15.9 65 4.2 ENE 11 15 6 8 1012.3 1012.3 0.0
10/12:30pm 21.1 20.8 15.4 70 3.4 ESE 11 15 6 8 1012.7 1012.7 0.0
10/12:00pm 20.8 20.7 14.9 69 3.5 SE 9 13 5 7 1013.1 1013.1 0.0
10/11:30am 21.1 20.3 15.0 68 3.6 SSE 13 15 7 8 1013.2 1013.2 0.0
10/11:00am 20.9 20.2 15.4 71 3.3 SW 13 20 7 11 1013.4 1013.4 0.0
10/10:30am 20.7 19.8 14.8 69 3.5 W 13 19 7 10 1013.4 1013.4 0.0
10/10:00am 21.3 21.2 16.0 72 3.2 N 11 15 6 8 1013.3 1013.3 0.0
10/09:30am 20.2 19.7 14.8 71 3.2 NW 11 17 6 9 1013.1 1013.1 0.0
10/09:00am 19.6 18.8 15.0 75 2.7 NNW 13 15 7 8 1013.0 1013.0 0.0
10/08:30am 18.5 17.9 14.6 78 2.3 WNW 11 15 6 8 1013.1 1013.1 0.0
10/08:00am 17.3 16.3 14.6 84 1.6 WNW 13 17 7 9 1013.2 1013.2 0.0
10/07:30am 16.5 14.5 14.0 85 1.4 WNW 17 20 9 11 1013.0 1013.0 0.0
10/07:00am 15.2 13.1 13.6 90 0.9 W 17 20 9 11 1013.0 1013.0 0.0
10/06:30am 15.1 13.4 13.6 91 0.8 WNW 15 17 8 9 1012.9 1012.9 0.0
10/06:00am 15.2 13.5 13.6 90 0.9 WNW 15 17 8 9 1013.1 1013.1 0.0
10/05:30am 15.1 14.5 13.5 90 0.9 W 9 11 5 6 1013.1 1013.1 0.0
10/05:00am 15.6 14.3 13.8 89 1.0 WNW 13 15 7 8 1012.9 1012.9 0.0
10/04:30am 16.1 14.9 14.1 88 1.1 NW 13 19 7 10 1013.0 1013.0 0.0
10/04:00am 16.1 15.4 14.3 89 1.0 NW 11 13 6 7 1013.3 1013.3 0.0
10/03:30am 16.2 14.7 14.2 88 1.1 WNW 15 22 8 12 1013.5 1013.5 0.0
10/03:00am 16.3 14.5 14.5 89 1.0 WNW 17 20 9 11 1013.7 1013.7 0.0
10/02:30am 16.4 15.1 14.8 90 0.9 NW 15 19 8 10 1014.0 1014.0 0.0
10/02:00am 16.3 15.0 14.7 90 0.9 WNW 15 19 8 10 1014.3 1014.3 0.0
10/01:30am 16.6 15.3 14.8 89 1.0 NW 15 20 8 11 1014.5 1014.5 0.0
10/01:00am 16.9 14.9 14.9 88 1.2 NW 19 22 10 12 1015.0 1015.0 0.0
10/12:30am 17.2 15.1 14.8 86 1.4 WNW 19 26 10 14 1015.4 1015.4 0.0
10/12:00am 17.3 15.3 14.9 86 1.4 WNW 19 22 10 12 1015.6 1015.6 0.0
 
Date/Time
EDT
Temp
°C
App
Temp
°C
Dew
Point
Rel
Hum
%
Delta-T
°C
Wind Press
QNH
hPa
Press
MSL
hPa
Rain
since 9 am
mm
Dir
 
Spd
km/h
Gust
km/h
Spd
kts
Gust
kts
09/11:30pm 17.4 15.8 14.9 85 1.4 WNW 17 20 9 11 1016.0 1016.0 0.0
09/11:00pm 17.5 15.9 15.1 86 1.4 NW 17 20 9 11 1016.4 1016.4 0.0
09/10:30pm 17.5 15.8 14.8 84 1.6 NW 17 20 9 11 1016.7 1016.7 0.0
09/10:00pm 17.8 16.2 14.9 83 1.7 NW 17 20 9 11 1016.8 1016.8 0.0
09/09:30pm 18.3 16.6 14.8 80 2.0 NW 17 20 9 11 1016.8 1016.8 0.0
09/09:00pm 18.8 17.1 14.7 77 2.4 NW 17 20 9 11 1016.6 1016.6 0.0
09/08:30pm 19.6 17.4 14.8 74 2.8 NW 20 28 11 15 1016.5 1016.5 0.0
09/08:00pm 20.5 17.2 15.1 71 3.2 NW 26 33 14 18 1016.6 1016.6 0.0
09/07:30pm 20.5 17.7 16.3 77 2.5 N 26 32 14 17 1016.7 1016.7 0.0
09/07:00pm 20.7 18.0 16.5 77 2.5 NNW 26 32 14 17 1016.9 1016.9 0.0
09/06:30pm 20.8 17.6 16.4 76 2.7 N 28 32 15 17 1016.9 1016.9 0.0
09/06:00pm 21.4 18.2 16.4 73 3.0 NNW 28 35 15 19 1017.0 1017.0 0.0
09/05:30pm 21.7 18.9 16.4 72 3.2 NNW 26 32 14 17 1017.3 1017.3 0.0
09/05:00pm 21.7 18.4 16.9 74 2.9 N 30 35 16 19 1017.7 1017.7 0.0

Other Formats:

Comma delimited format used in spreadsheet applications
http://www.bom.gov.au/fwo/IDT60801/IDT60801.94983.axf

JavaScript Object Notation format (JSON) in row-major order
http://www.bom.gov.au/fwo/IDT60801/IDT60801.94983.json